sensor_id;sensor_type;location;lat;lon;timestamp;noise_LAeq;noise_LA_min;noise_LA_max;noise_LA01;noise_LA95
50333;Laerm;36239;48.132;-1.210;2023-05-07T00:00:38;37.43;32.93;41.38;;
50333;Laerm;36239;48.132;-1.210;2023-05-07T00:03:04;38.58;34.31;43.29;;
50333;Laerm;36239;48.132;-1.210;2023-05-07T00:05:31;38.00;33.44;43.58;;
50333;Laerm;36239;48.132;-1.210;2023-05-07T00:07:57;38.00;32.35;42.59;;
50333;Laerm;36239;48.132;-1.210;2023-05-07T00:10:23;40.28;35.04;44.31;;
50333;Laerm;36239;48.132;-1.210;2023-05-07T00:12:49;37.81;33.44;46.50;;
50333;Laerm;36239;48.132;-1.210;2023-05-07T00:15:15;38.16;32.93;46.64;;
50333;Laerm;36239;48.132;-1.210;2023-05-07T00:17:41;37.62;32.93;41.96;;
50333;Laerm;36239;48.132;-1.210;2023-05-07T00:20:07;38.01;33.90;42.22;;
50333;Laerm;36239;48.132;-1.210;2023-05-07T00:22:33;38.08;33.90;44.58;;
50333;Laerm;36239;48.132;-1.210;2023-05-07T00:24:59;37.93;33.44;45.37;;
50333;Laerm;36239;48.132;-1.210;2023-05-07T00:27:25;38.18;32.93;49.73;;
50333;Laerm;36239;48.132;-1.210;2023-05-07T00:29:51;43.01;34.31;62.62;;
50333;Laerm;36239;48.132;-1.210;2023-05-07T00:32:17;37.59;33.44;46.73;;
50333;Laerm;36239;48.132;-1.210;2023-05-07T00:34:43;37.60;33.44;42.09;;
50333;Laerm;36239;48.132;-1.210;2023-05-07T00:37:09;37.66;32.93;44.08;;
50333;Laerm;36239;48.132;-1.210;2023-05-07T00:39:35;37.63;33.44;41.82;;
50333;Laerm;36239;48.132;-1.210;2023-05-07T00:42:01;37.47;32.93;43.44;;
50333;Laerm;36239;48.132;-1.210;2023-05-07T00:44:28;37.15;32.93;48.05;;
50333;Laerm;36239;48.132;-1.210;2023-05-07T00:46:55;37.28;32.35;51.08;;
50333;Laerm;36239;48.132;-1.210;2023-05-07T00:49:22;37.60;33.44;46.38;;
50333;Laerm;36239;48.132;-1.210;2023-05-07T00:51:50;38.55;32.93;62.79;;
50333;Laerm;36239;48.132;-1.210;2023-05-07T00:54:16;44.00;32.93;60.23;;
50333;Laerm;36239;48.132;-1.210;2023-05-07T00:56:42;37.75;33.44;49.29;;
50333;Laerm;36239;48.132;-1.210;2023-05-07T00:59:08;37.78;32.93;41.30;;
50333;Laerm;36239;48.132;-1.210;2023-05-07T01:01:34;38.48;32.93;45.14;;
50333;Laerm;36239;48.132;-1.210;2023-05-07T01:04:00;38.71;33.44;48.84;;
50333;Laerm;36239;48.132;-1.210;2023-05-07T01:06:26;37.77;31.68;43.54;;
50333;Laerm;36239;48.132;-1.210;2023-05-07T01:08:54;37.62;32.93;42.59;;
50333;Laerm;36239;48.132;-1.210;2023-05-07T01:11:22;38.50;32.35;57.60;;
50333;Laerm;36239;48.132;-1.210;2023-05-07T01:13:48;39.53;32.93;43.68;;
50333;Laerm;36239;48.132;-1.210;2023-05-07T01:16:16;37.43;32.93;41.14;;
50333;Laerm;36239;48.132;-1.210;2023-05-07T01:18:42;37.23;32.93;41.68;;
50333;Laerm;36239;48.132;-1.210;2023-05-07T01:21:08;37.36;32.35;41.22;;
50333;Laerm;36239;48.132;-1.210;2023-05-07T01:23:36;37.48;32.93;42.41;;
50333;Laerm;36239;48.132;-1.210;2023-05-07T01:26:03;37.37;32.35;44.19;;
50333;Laerm;36239;48.132;-1.210;2023-05-07T01:28:29;37.37;33.44;43.29;;
50333;Laerm;36239;48.132;-1.210;2023-05-07T01:30:58;37.35;32.35;41.89;;
50333;Laerm;36239;48.132;-1.210;2023-05-07T01:33:25;37.21;32.35;43.58;;
50333;Laerm;36239;48.132;-1.210;2023-05-07T01:35:52;37.10;31.68;41.46;;
50333;Laerm;36239;48.132;-1.210;2023-05-07T01:38:19;37.10;32.35;41.33;;
50333;Laerm;36239;48.132;-1.210;2023-05-07T01:40:46;37.14;32.93;43.44;;
50333;Laerm;36239;48.132;-1.210;2023-05-07T01:43:12;37.17;32.35;41.53;;
50333;Laerm;36239;48.132;-1.210;2023-05-07T01:45:38;37.28;32.35;43.58;;
50333;Laerm;36239;48.132;-1.210;2023-05-07T01:48:06;37.04;32.35;41.89;;
50333;Laerm;36239;48.132;-1.210;2023-05-07T01:50:32;37.31;32.93;42.59;;
50333;Laerm;36239;48.132;-1.210;2023-05-07T01:52:58;37.36;32.93;43.34;;
50333;Laerm;36239;48.132;-1.210;2023-05-07T01:55:25;37.34;32.93;43.19;;
50333;Laerm;36239;48.132;-1.210;2023-05-07T01:57:51;37.40;32.35;46.18;;
50333;Laerm;36239;48.132;-1.210;2023-05-07T02:00:17;37.21;32.35;41.53;;
50333;Laerm;36239;48.132;-1.210;2023-05-07T02:02:43;37.31;32.35;41.30;;
50333;Laerm;36239;48.132;-1.210;2023-05-07T02:05:09;37.17;32.35;42.71;;
50333;Laerm;36239;48.132;-1.210;2023-05-07T02:07:35;37.13;32.35;47.70;;
50333;Laerm;36239;48.132;-1.210;2023-05-07T02:10:02;38.05;32.35;43.44;;
50333;Laerm;36239;48.132;-1.210;2023-05-07T02:12:28;37.12;32.35;42.03;;
50333;Laerm;36239;48.132;-1.210;2023-05-07T02:14:54;37.15;31.68;49.21;;
50333;Laerm;36239;48.132;-1.210;2023-05-07T02:17:20;37.09;32.93;44.03;;
50333;Laerm;36239;48.132;-1.210;2023-05-07T02:19:46;37.21;32.93;42.03;;
50333;Laerm;36239;48.132;-1.210;2023-05-07T02:22:12;37.28;32.93;42.59;;
50333;Laerm;36239;48.132;-1.210;2023-05-07T02:24:38;37.06;32.93;43.81;;
50333;Laerm;36239;48.132;-1.210;2023-05-07T02:27:04;37.02;32.35;41.38;;
50333;Laerm;36239;48.132;-1.210;2023-05-07T02:29:30;36.99;32.93;41.06;;
50333;Laerm;36239;48.132;-1.210;2023-05-07T02:31:56;37.08;32.35;41.30;;
50333;Laerm;36239;48.132;-1.210;2023-05-07T02:34:22;37.06;32.93;41.38;;
50333;Laerm;36239;48.132;-1.210;2023-05-07T02:36:48;37.05;32.35;40.71;;
50333;Laerm;36239;48.132;-1.210;2023-05-07T02:39:14;37.00;32.93;42.98;;
50333;Laerm;36239;48.132;-1.210;2023-05-07T02:41:41;37.18;32.35;42.71;;
50333;Laerm;36239;48.132;-1.210;2023-05-07T02:44:07;37.10;32.35;42.24;;
50333;Laerm;36239;48.132;-1.210;2023-05-07T02:46:33;37.07;32.93;41.38;;
50333;Laerm;36239;48.132;-1.210;2023-05-07T02:48:59;37.08;32.93;41.68;;
50333;Laerm;36239;48.132;-1.210;2023-05-07T02:51:25;37.03;32.35;42.41;;
50333;Laerm;36239;48.132;-1.210;2023-05-07T02:53:51;37.02;32.35;43.39;;
50333;Laerm;36239;48.132;-1.210;2023-05-07T02:56:17;36.99;32.93;41.75;;
50333;Laerm;36239;48.132;-1.210;2023-05-07T02:58:43;37.12;32.93;41.06;;
50333;Laerm;36239;48.132;-1.210;2023-05-07T03:01:09;36.97;31.68;41.38;;
50333;Laerm;36239;48.132;-1.210;2023-05-07T03:03:35;40.02;32.93;44.97;;
50333;Laerm;36239;48.132;-1.210;2023-05-07T03:06:01;37.38;32.93;42.22;;
50333;Laerm;36239;48.132;-1.210;2023-05-07T03:08:28;47.56;32.35;68.80;;
50333;Laerm;36239;48.132;-1.210;2023-05-07T03:10:54;37.00;32.93;41.53;;
50333;Laerm;36239;48.132;-1.210;2023-05-07T03:13:20;37.03;31.68;42.47;;
50333;Laerm;36239;48.132;-1.210;2023-05-07T03:15:46;36.99;32.35;41.46;;
50333;Laerm;36239;48.132;-1.210;2023-05-07T03:18:12;37.05;32.35;41.22;;
50333;Laerm;36239;48.132;-1.210;2023-05-07T03:20:38;37.23;32.35;43.72;;
50333;Laerm;36239;48.132;-1.210;2023-05-07T03:23:04;38.02;32.58;49.25;;
50333;Laerm;36239;48.132;-1.210;2023-05-07T03:25:30;37.22;32.93;43.04;;
50333;Laerm;36239;48.132;-1.210;2023-05-07T03:27:57;37.15;31.68;41.38;;
50333;Laerm;36239;48.132;-1.210;2023-05-07T03:30:23;41.41;33.44;47.54;;
50333;Laerm;36239;48.132;-1.210;2023-05-07T03:32:49;38.53;32.93;52.44;;
50333;Laerm;36239;48.132;-1.210;2023-05-07T03:35:15;40.59;32.93;55.12;;
50333;Laerm;36239;48.132;-1.210;2023-05-07T03:37:42;40.45;32.93;57.01;;
50333;Laerm;36239;48.132;-1.210;2023-05-07T03:40:08;44.13;32.93;59.25;;
50333;Laerm;36239;48.132;-1.210;2023-05-07T03:42:35;44.80;33.44;63.10;;
50333;Laerm;36239;48.132;-1.210;2023-05-07T03:45:02;43.96;33.90;57.28;;
50333;Laerm;36239;48.132;-1.210;2023-05-07T03:47:28;44.27;33.44;56.47;;
50333;Laerm;36239;48.132;-1.210;2023-05-07T03:49:54;44.24;33.44;58.19;;
50333;Laerm;36239;48.132;-1.210;2023-05-07T03:52:20;45.14;34.31;58.70;;
50333;Laerm;36239;48.132;-1.210;2023-05-07T03:54:50;46.25;36.69;58.92;;
50333;Laerm;36239;48.132;-1.210;2023-05-07T03:57:16;47.17;33.90;58.87;;
50333;Laerm;36239;48.132;-1.210;2023-05-07T03:59:42;49.24;36.69;61.87;;
50333;Laerm;36239;48.132;-1.210;2023-05-07T04:02:08;48.99;36.69;60.24;;
50333;Laerm;36239;48.132;-1.210;2023-05-07T04:04:34;48.56;35.66;62.50;;
50333;Laerm;36239;48.132;-1.210;2023-05-07T04:07:00;47.62;35.31;61.45;;
50333;Laerm;36239;48.132;-1.210;2023-05-07T04:09:26;50.45;36.20;66.35;;
50333;Laerm;36239;48.132;-1.210;2023-05-07T04:11:52;51.33;35.66;66.12;;
50333;Laerm;36239;48.132;-1.210;2023-05-07T04:14:18;49.52;35.36;61.16;;
50333;Laerm;36239;48.132;-1.210;2023-05-07T04:16:44;50.25;35.04;60.98;;
50333;Laerm;36239;48.132;-1.210;2023-05-07T04:19:10;47.35;34.69;62.27;;
50333;Laerm;36239;48.132;-1.210;2023-05-07T04:21:36;43.93;33.90;62.05;;
50333;Laerm;36239;48.132;-1.210;2023-05-07T04:24:02;42.43;34.31;60.16;;
50333;Laerm;36239;48.132;-1.210;2023-05-07T04:26:29;42.05;34.69;51.64;;
50333;Laerm;36239;48.132;-1.210;2023-05-07T04:28:55;40.84;34.69;52.41;;
50333;Laerm;36239;48.132;-1.210;2023-05-07T04:31:21;38.51;32.93;50.90;;
50333;Laerm;36239;48.132;-1.210;2023-05-07T04:33:47;39.55;33.90;49.92;;
50333;Laerm;36239;48.132;-1.210;2023-05-07T04:36:13;39.20;34.31;49.30;;
50333;Laerm;36239;48.132;-1.210;2023-05-07T04:38:39;39.92;33.44;53.19;;
50333;Laerm;36239;48.132;-1.210;2023-05-07T04:41:05;40.45;34.31;51.73;;
50333;Laerm;36239;48.132;-1.210;2023-05-07T04:43:32;42.82;32.35;58.60;;
50333;Laerm;36239;48.132;-1.210;2023-05-07T04:45:58;44.96;33.44;60.68;;
50333;Laerm;36239;48.132;-1.210;2023-05-07T04:48:24;44.45;32.35;60.07;;
50333;Laerm;36239;48.132;-1.210;2023-05-07T04:50:50;44.03;33.90;62.57;;
50333;Laerm;36239;48.132;-1.210;2023-05-07T04:53:17;41.02;34.69;57.05;;
50333;Laerm;36239;48.132;-1.210;2023-05-07T04:55:43;39.96;33.44;54.61;;
50333;Laerm;36239;48.132;-1.210;2023-05-07T04:58:09;39.95;32.93;52.94;;
50333;Laerm;36239;48.132;-1.210;2023-05-07T05:00:35;39.64;32.93;51.94;;
50333;Laerm;36239;48.132;-1.210;2023-05-07T05:03:01;39.49;33.44;57.47;;
50333;Laerm;36239;48.132;-1.210;2023-05-07T05:05:27;39.99;32.93;52.74;;
50333;Laerm;36239;48.132;-1.210;2023-05-07T05:07:53;39.66;32.35;51.72;;
50333;Laerm;36239;48.132;-1.210;2023-05-07T05:10:19;43.02;34.31;58.04;;
50333;Laerm;36239;48.132;-1.210;2023-05-07T05:12:45;42.04;34.69;55.74;;
50333;Laerm;36239;48.132;-1.210;2023-05-07T05:15:12;38.68;32.35;51.79;;
50333;Laerm;36239;48.132;-1.210;2023-05-07T05:17:38;44.85;33.44;59.46;;
50333;Laerm;36239;48.132;-1.210;2023-05-07T05:20:05;46.62;34.31;62.64;;
50333;Laerm;36239;48.132;-1.210;2023-05-07T05:22:31;42.53;33.90;59.47;;
50333;Laerm;36239;48.132;-1.210;2023-05-07T05:24:57;41.51;32.93;57.46;;
50333;Laerm;36239;48.132;-1.210;2023-05-07T05:27:23;41.02;33.44;57.31;;
50333;Laerm;36239;48.132;-1.210;2023-05-07T05:29:50;38.76;33.90;51.54;;
50333;Laerm;36239;48.132;-1.210;2023-05-07T05:32:16;41.18;33.44;61.22;;
50333;Laerm;36239;48.132;-1.210;2023-05-07T05:34:42;40.84;34.31;56.26;;
50333;Laerm;36239;48.132;-1.210;2023-05-07T05:37:08;41.41;33.90;56.06;;
50333;Laerm;36239;48.132;-1.210;2023-05-07T05:39:34;43.46;33.44;60.22;;
50333;Laerm;36239;48.132;-1.210;2023-05-07T05:42:00;43.08;32.93;59.39;;
50333;Laerm;36239;48.132;-1.210;2023-05-07T05:44:26;43.57;33.90;57.03;;
50333;Laerm;36239;48.132;-1.210;2023-05-07T05:46:51;42.86;33.90;60.54;;
50333;Laerm;36239;48.132;-1.210;2023-05-07T05:49:20;41.06;34.31;59.44;;
50333;Laerm;36239;48.132;-1.210;2023-05-07T05:51:46;50.16;34.69;67.35;;
50333;Laerm;36239;48.132;-1.210;2023-05-07T05:54:12;42.23;35.04;59.09;;
50333;Laerm;36239;48.132;-1.210;2023-05-07T05:56:38;46.36;43.09;57.08;;
50333;Laerm;36239;48.132;-1.210;2023-05-07T05:59:04;45.82;42.35;53.37;;
50333;Laerm;36239;48.132;-1.210;2023-05-07T06:01:30;47.68;40.71;62.40;;
50333;Laerm;36239;48.132;-1.210;2023-05-07T06:03:56;46.09;42.59;52.26;;
50333;Laerm;36239;48.132;-1.210;2023-05-07T06:06:22;49.71;45.75;56.88;;
50333;Laerm;36239;48.132;-1.210;2023-05-07T06:08:48;48.20;43.58;60.27;;
50333;Laerm;36239;48.132;-1.210;2023-05-07T06:11:14;46.40;42.22;61.19;;
50333;Laerm;36239;48.132;-1.210;2023-05-07T06:13:40;44.57;41.46;52.82;;
50333;Laerm;36239;48.132;-1.210;2023-05-07T06:16:06;43.96;41.14;53.72;;
50333;Laerm;36239;48.132;-1.210;2023-05-07T06:18:32;46.49;38.52;59.26;;
50333;Laerm;36239;48.132;-1.210;2023-05-07T06:21:01;47.14;36.91;60.62;;
50333;Laerm;36239;48.132;-1.210;2023-05-07T06:23:27;45.36;36.20;60.07;;
50333;Laerm;36239;48.132;-1.210;2023-05-07T06:25:53;39.81;35.04;49.39;;
50333;Laerm;36239;48.132;-1.210;2023-05-07T06:28:19;47.82;35.66;62.89;;
50333;Laerm;36239;48.132;-1.210;2023-05-07T06:30:45;46.04;36.91;63.03;;
50333;Laerm;36239;48.132;-1.210;2023-05-07T06:33:11;48.87;37.32;60.55;;
50333;Laerm;36239;48.132;-1.210;2023-05-07T06:35:37;48.63;42.93;57.93;;
50333;Laerm;36239;48.132;-1.210;2023-05-07T06:38:03;47.15;42.16;58.31;;
50333;Laerm;36239;48.132;-1.210;2023-05-07T06:40:29;44.80;41.38;54.19;;
50333;Laerm;36239;48.132;-1.210;2023-05-07T06:42:56;43.39;39.34;55.85;;
50333;Laerm;36239;48.132;-1.210;2023-05-07T06:45:22;51.74;43.04;61.36;;
50333;Laerm;36239;48.132;-1.210;2023-05-07T06:47:48;52.55;44.90;69.41;;
50333;Laerm;36239;48.132;-1.210;2023-05-07T06:50:14;50.63;44.87;77.37;;
50333;Laerm;36239;48.132;-1.210;2023-05-07T06:52:42;47.58;42.16;60.95;;
50333;Laerm;36239;48.132;-1.210;2023-05-07T06:55:08;52.96;40.80;69.61;;
50333;Laerm;36239;48.132;-1.210;2023-05-07T06:57:34;48.06;37.12;66.14;;
50333;Laerm;36239;48.132;-1.210;2023-05-07T07:00:00;46.16;36.69;59.65;;
50333;Laerm;36239;48.132;-1.210;2023-05-07T07:02:26;46.17;36.69;62.01;;
50333;Laerm;36239;48.132;-1.210;2023-05-07T07:04:52;41.56;35.04;59.57;;
50333;Laerm;36239;48.132;-1.210;2023-05-07T07:07:18;40.58;35.36;52.20;;
50333;Laerm;36239;48.132;-1.210;2023-05-07T07:09:44;39.39;34.69;48.45;;
50333;Laerm;36239;48.132;-1.210;2023-05-07T07:12:10;39.31;33.44;53.86;;
50333;Laerm;36239;48.132;-1.210;2023-05-07T07:14:36;44.85;34.31;61.53;;
50333;Laerm;36239;48.132;-1.210;2023-05-07T07:17:02;39.76;33.90;50.77;;
50333;Laerm;36239;48.132;-1.210;2023-05-07T07:19:28;45.88;34.31;64.60;;
50333;Laerm;36239;48.132;-1.210;2023-05-07T07:21:54;40.85;35.36;57.29;;
50333;Laerm;36239;48.132;-1.210;2023-05-07T07:24:20;41.56;37.52;51.86;;
50333;Laerm;36239;48.132;-1.210;2023-05-07T07:26:47;44.30;39.21;57.43;;
50333;Laerm;36239;48.132;-1.210;2023-05-07T07:29:13;45.31;40.33;59.74;;
50333;Laerm;36239;48.132;-1.210;2023-05-07T07:31:39;44.54;40.53;53.64;;
50333;Laerm;36239;48.132;-1.210;2023-05-07T07:34:05;45.18;40.33;57.81;;
50333;Laerm;36239;48.132;-1.210;2023-05-07T07:36:31;42.94;39.46;51.90;;
50333;Laerm;36239;48.132;-1.210;2023-05-07T07:38:57;42.37;38.52;52.91;;
50333;Laerm;36239;48.132;-1.210;2023-05-07T07:41:23;44.72;38.05;66.30;;
50333;Laerm;36239;48.132;-1.210;2023-05-07T07:43:49;42.24;38.95;53.09;;
50333;Laerm;36239;48.132;-1.210;2023-05-07T07:46:15;43.65;39.46;60.03;;
50333;Laerm;36239;48.132;-1.210;2023-05-07T07:48:41;42.30;38.52;59.40;;
50333;Laerm;36239;48.132;-1.210;2023-05-07T07:51:07;54.23;37.52;78.68;;
50333;Laerm;36239;48.132;-1.210;2023-05-07T07:53:33;45.11;37.32;62.27;;
50333;Laerm;36239;48.132;-1.210;2023-05-07T07:55:59;41.05;36.91;51.93;;
50333;Laerm;36239;48.132;-1.210;2023-05-07T07:58:25;41.90;36.20;59.75;;
50333;Laerm;36239;48.132;-1.210;2023-05-07T08:00:51;47.72;36.20;65.37;;
50333;Laerm;36239;48.132;-1.210;2023-05-07T08:03:17;47.47;35.36;72.75;;
50333;Laerm;36239;48.132;-1.210;2023-05-07T08:05:43;47.91;36.20;65.12;;
50333;Laerm;36239;48.132;-1.210;2023-05-07T08:08:09;48.37;35.94;80.31;;
50333;Laerm;36239;48.132;-1.210;2023-05-07T08:10:35;55.28;34.69;82.22;;
50333;Laerm;36239;48.132;-1.210;2023-05-07T08:13:03;54.99;36.20;77.28;;
50333;Laerm;36239;48.132;-1.210;2023-05-07T08:15:30;57.93;35.94;86.64;;
50333;Laerm;36239;48.132;-1.210;2023-05-07T08:17:56;47.00;35.66;65.67;;
50333;Laerm;36239;48.132;-1.210;2023-05-07T08:20:23;49.64;36.20;72.72;;
50333;Laerm;36239;48.132;-1.210;2023-05-07T08:22:49;46.90;36.56;68.94;;
50333;Laerm;36239;48.132;-1.210;2023-05-07T08:25:15;52.74;35.66;76.03;;
50333;Laerm;36239;48.132;-1.210;2023-05-07T08:27:41;56.58;33.90;79.74;;
50333;Laerm;36239;48.132;-1.210;2023-05-07T08:30:07;44.28;35.04;58.55;;
50333;Laerm;36239;48.132;-1.210;2023-05-07T08:32:33;43.76;32.93;64.01;;
50333;Laerm;36239;48.132;-1.210;2023-05-07T08:34:59;43.29;35.94;61.25;;
50333;Laerm;36239;48.132;-1.210;2023-05-07T08:37:25;43.72;34.69;62.41;;
50333;Laerm;36239;48.132;-1.210;2023-05-07T08:39:51;43.82;34.69;70.03;;
50333;Laerm;36239;48.132;-1.210;2023-05-07T08:42:17;39.30;33.90;49.64;;
50333;Laerm;36239;48.132;-1.210;2023-05-07T08:44:44;55.89;34.69;80.17;;
50333;Laerm;36239;48.132;-1.210;2023-05-07T08:47:12;47.51;34.69;66.31;;
50333;Laerm;36239;48.132;-1.210;2023-05-07T08:49:38;49.61;34.31;70.92;;
50333;Laerm;36239;48.132;-1.210;2023-05-07T08:52:04;52.23;35.66;74.51;;
50333;Laerm;36239;48.132;-1.210;2023-05-07T08:54:31;45.43;35.36;63.90;;
50333;Laerm;36239;48.132;-1.210;2023-05-07T08:56:57;44.41;35.04;65.43;;
50333;Laerm;36239;48.132;-1.210;2023-05-07T08:59:23;44.12;35.04;69.28;;
50333;Laerm;36239;48.132;-1.210;2023-05-07T09:01:49;53.30;35.36;79.19;;
50333;Laerm;36239;48.132;-1.210;2023-05-07T09:04:15;55.91;35.04;91.81;;
50333;Laerm;36239;48.132;-1.210;2023-05-07T09:06:41;56.26;35.94;79.95;;
50333;Laerm;36239;48.132;-1.210;2023-05-07T09:09:07;48.01;34.69;63.80;;
50333;Laerm;36239;48.132;-1.210;2023-05-07T09:11:33;43.85;35.36;60.90;;
50333;Laerm;36239;48.132;-1.210;2023-05-07T09:13:59;42.65;34.69;56.73;;
50333;Laerm;36239;48.132;-1.210;2023-05-07T09:16:28;48.86;33.90;61.90;;
50333;Laerm;36239;48.132;-1.210;2023-05-07T09:18:54;50.55;34.31;75.62;;
50333;Laerm;36239;48.132;-1.210;2023-05-07T09:21:21;57.38;35.36;85.98;;
50333;Laerm;36239;48.132;-1.210;2023-05-07T09:23:50;40.70;33.90;51.97;;
50333;Laerm;36239;48.132;-1.210;2023-05-07T09:26:16;40.21;34.69;55.12;;
50333;Laerm;36239;48.132;-1.210;2023-05-07T09:28:42;40.92;33.90;54.78;;
50333;Laerm;36239;48.132;-1.210;2023-05-07T09:31:08;43.79;34.69;58.03;;
50333;Laerm;36239;48.132;-1.210;2023-05-07T09:33:35;47.16;35.36;60.17;;
50333;Laerm;36239;48.132;-1.210;2023-05-07T09:36:08;49.66;35.94;65.15;;
50333;Laerm;36239;48.132;-1.210;2023-05-07T09:38:34;42.33;36.20;58.25;;
50333;Laerm;36239;48.132;-1.210;2023-05-07T09:41:05;50.65;35.94;71.75;;
50333;Laerm;36239;48.132;-1.210;2023-05-07T09:43:31;59.81;35.04;85.99;;
50333;Laerm;36239;48.132;-1.210;2023-05-07T09:45:59;44.75;36.69;67.39;;
50333;Laerm;36239;48.132;-1.210;2023-05-07T09:48:28;44.23;36.20;59.10;;
50333;Laerm;36239;48.132;-1.210;2023-05-07T09:50:55;44.88;37.70;62.64;;
50333;Laerm;36239;48.132;-1.210;2023-05-07T09:53:24;46.28;36.69;64.32;;
50333;Laerm;36239;48.132;-1.210;2023-05-07T09:55:50;47.52;35.66;61.73;;
50333;Laerm;36239;48.132;-1.210;2023-05-07T09:58:17;44.92;35.36;69.93;;
50333;Laerm;36239;48.132;-1.210;2023-05-07T10:00:44;48.62;35.94;64.40;;
50333;Laerm;36239;48.132;-1.210;2023-05-07T10:03:11;45.65;35.94;65.86;;
50333;Laerm;36239;48.132;-1.210;2023-05-07T10:05:38;43.75;35.66;61.98;;
50333;Laerm;36239;48.132;-1.210;2023-05-07T10:08:05;47.85;36.91;68.63;;
50333;Laerm;36239;48.132;-1.210;2023-05-07T10:10:32;56.29;35.94;76.37;;
50333;Laerm;36239;48.132;-1.210;2023-05-07T10:12:59;52.37;37.12;75.94;;
50333;Laerm;36239;48.132;-1.210;2023-05-07T10:15:26;51.51;36.45;72.76;;
50333;Laerm;36239;48.132;-1.210;2023-05-07T10:17:53;48.87;35.94;72.52;;
50333;Laerm;36239;48.132;-1.210;2023-05-07T10:20:19;54.16;34.69;80.23;;
50333;Laerm;36239;48.132;-1.210;2023-05-07T10:22:46;46.84;35.66;77.90;;
50333;Laerm;36239;48.132;-1.210;2023-05-07T10:25:26;47.47;36.20;73.05;;
50333;Laerm;36239;48.132;-1.210;2023-05-07T10:27:54;50.16;36.91;76.25;;
50333;Laerm;36239;48.132;-1.210;2023-05-07T10:30:38;43.48;35.04;68.04;;
50333;Laerm;36239;48.132;-1.210;2023-05-07T10:33:06;41.73;35.01;65.34;;
50333;Laerm;36239;48.132;-1.210;2023-05-07T10:35:38;54.08;35.36;79.27;;
50333;Laerm;36239;48.132;-1.210;2023-05-07T10:38:04;45.08;36.20;77.99;;
50333;Laerm;36239;48.132;-1.210;2023-05-07T10:40:31;43.12;37.12;60.10;;
50333;Laerm;36239;48.132;-1.210;2023-05-07T10:42:57;41.29;35.04;54.52;;
50333;Laerm;36239;48.132;-1.210;2023-05-07T10:45:25;41.69;35.04;68.59;;
50333;Laerm;36239;48.132;-1.210;2023-05-07T10:48:07;45.24;33.90;62.28;;
50333;Laerm;36239;48.132;-1.210;2023-05-07T10:50:34;47.07;34.31;70.08;;
50333;Laerm;36239;48.132;-1.210;2023-05-07T10:55:46;41.90;36.20;60.54;;
50333;Laerm;36239;48.132;-1.210;2023-05-07T11:00:48;45.18;35.36;59.05;;
50333;Laerm;36239;48.132;-1.210;2023-05-07T11:03:14;41.30;35.04;55.25;;
50333;Laerm;36239;48.132;-1.210;2023-05-07T11:05:41;45.45;33.90;61.13;;
50333;Laerm;36239;48.132;-1.210;2023-05-07T11:08:07;48.25;35.36;72.79;;
50333;Laerm;36239;48.132;-1.210;2023-05-07T11:13:15;45.44;35.66;65.61;;
50333;Laerm;36239;48.132;-1.210;2023-05-07T11:15:45;44.44;35.66;68.70;;
50333;Laerm;36239;48.132;-1.210;2023-05-07T11:18:12;45.83;36.45;65.40;;
50333;Laerm;36239;48.132;-1.210;2023-05-07T11:20:55;44.22;35.94;64.02;;
50333;Laerm;36239;48.132;-1.210;2023-05-07T11:26:04;46.40;35.36;58.66;;
50333;Laerm;36239;48.132;-1.210;2023-05-07T11:28:30;43.13;35.04;58.28;;
50333;Laerm;36239;48.132;-1.210;2023-05-07T11:30:57;42.39;35.36;63.45;;
50333;Laerm;36239;48.132;-1.210;2023-05-07T11:33:23;52.28;35.94;75.85;;
50333;Laerm;36239;48.132;-1.210;2023-05-07T11:35:52;50.35;35.94;77.63;;
50333;Laerm;36239;48.132;-1.210;2023-05-07T11:38:19;51.48;35.04;73.09;;
50333;Laerm;36239;48.132;-1.210;2023-05-07T11:43:17;43.94;34.69;66.13;;
50333;Laerm;36239;48.132;-1.210;2023-05-07T11:45:44;44.84;34.69;64.36;;
50333;Laerm;36239;48.132;-1.210;2023-05-07T11:48:10;49.10;35.94;72.80;;
50333;Laerm;36239;48.132;-1.210;2023-05-07T11:50:36;52.86;35.36;73.04;;
50333;Laerm;36239;48.132;-1.210;2023-05-07T11:53:15;47.61;35.94;70.90;;
50333;Laerm;36239;48.132;-1.210;2023-05-07T11:55:43;58.46;35.66;81.32;;
50333;Laerm;36239;48.132;-1.210;2023-05-07T11:58:10;52.28;34.31;73.91;;
50333;Laerm;36239;48.132;-1.210;2023-05-07T12:00:36;51.53;35.04;77.86;;
50333;Laerm;36239;48.132;-1.210;2023-05-07T12:03:05;50.16;35.04;71.64;;
50333;Laerm;36239;48.132;-1.210;2023-05-07T12:05:31;59.97;35.66;81.28;;
50333;Laerm;36239;48.132;-1.210;2023-05-07T12:07:58;41.89;35.04;63.06;;
50333;Laerm;36239;48.132;-1.210;2023-05-07T12:10:24;47.08;36.20;64.69;;
50333;Laerm;36239;48.132;-1.210;2023-05-07T12:12:50;54.78;36.91;81.43;;
50333;Laerm;36239;48.132;-1.210;2023-05-07T12:15:16;61.37;35.94;83.17;;
50333;Laerm;36239;48.132;-1.210;2023-05-07T12:17:43;58.95;35.04;77.54;;
50333;Laerm;36239;48.132;-1.210;2023-05-07T12:20:09;62.54;35.04;87.68;;
50333;Laerm;36239;48.132;-1.210;2023-05-07T12:22:36;43.66;35.36;62.49;;
50333;Laerm;36239;48.132;-1.210;2023-05-07T12:25:02;42.95;35.66;53.73;;
50333;Laerm;36239;48.132;-1.210;2023-05-07T12:27:28;53.36;36.69;81.43;;
50333;Laerm;36239;48.132;-1.210;2023-05-07T12:29:54;42.34;35.04;66.41;;
50333;Laerm;36239;48.132;-1.210;2023-05-07T12:32:23;41.71;35.66;55.28;;
50333;Laerm;36239;48.132;-1.210;2023-05-07T12:34:49;48.61;36.20;69.50;;
50333;Laerm;36239;48.132;-1.210;2023-05-07T12:37:15;49.68;36.45;73.51;;
50333;Laerm;36239;48.132;-1.210;2023-05-07T12:39:47;43.72;35.36;69.44;;
50333;Laerm;36239;48.132;-1.210;2023-05-07T12:42:16;41.84;35.04;58.25;;
50333;Laerm;36239;48.132;-1.210;2023-05-07T12:44:43;47.66;35.36;76.64;;
50333;Laerm;36239;48.132;-1.210;2023-05-07T12:47:10;54.77;36.91;78.49;;
50333;Laerm;36239;48.132;-1.210;2023-05-07T12:49:37;41.61;36.45;60.09;;
50333;Laerm;36239;48.132;-1.210;2023-05-07T12:52:04;45.92;35.36;63.05;;
50333;Laerm;36239;48.132;-1.210;2023-05-07T12:54:31;41.09;35.36;60.72;;
50333;Laerm;36239;48.132;-1.210;2023-05-07T12:57:01;43.29;35.94;64.50;;
50333;Laerm;36239;48.132;-1.210;2023-05-07T12:59:37;49.13;36.69;66.09;;
50333;Laerm;36239;48.132;-1.210;2023-05-07T13:02:04;43.44;35.66;63.72;;
50333;Laerm;36239;48.132;-1.210;2023-05-07T13:04:30;42.55;35.36;61.99;;
50333;Laerm;36239;48.132;-1.210;2023-05-07T13:06:57;42.85;35.31;61.38;;
50333;Laerm;36239;48.132;-1.210;2023-05-07T13:09:24;43.89;36.34;58.48;;
50333;Laerm;36239;48.132;-1.210;2023-05-07T13:11:50;51.49;36.20;74.84;;
50333;Laerm;36239;48.132;-1.210;2023-05-07T13:14:16;58.79;37.32;80.65;;
50333;Laerm;36239;48.132;-1.210;2023-05-07T13:16:42;48.10;36.45;72.18;;
50333;Laerm;36239;48.132;-1.210;2023-05-07T13:19:08;45.51;34.69;66.88;;
50333;Laerm;36239;48.132;-1.210;2023-05-07T13:21:34;42.69;34.69;61.26;;
50333;Laerm;36239;48.132;-1.210;2023-05-07T13:24:00;51.97;34.69;72.59;;
50333;Laerm;36239;48.132;-1.210;2023-05-07T13:26:26;48.29;36.69;77.74;;
50333;Laerm;36239;48.132;-1.210;2023-05-07T13:28:55;55.05;36.69;78.52;;
50333;Laerm;36239;48.132;-1.210;2023-05-07T13:31:21;44.41;35.36;62.45;;
50333;Laerm;36239;48.132;-1.210;2023-05-07T13:33:47;43.55;35.01;68.33;;
50333;Laerm;36239;48.132;-1.210;2023-05-07T13:36:13;41.15;35.04;55.15;;
50333;Laerm;36239;48.132;-1.210;2023-05-07T13:38:39;43.99;36.20;69.11;;
50333;Laerm;36239;48.132;-1.210;2023-05-07T13:41:05;41.10;35.04;59.31;;